Time;durP1;ratioP1;P1;durP2;ratioP2;P2;SDS_P1;SDS_P2;PMS_P1;PMS_P2;Temp;Humidity;BMP_temperature;BMP_pressure;BME280_temperature;BME280_humidity;BME280_pressure;Samples;Min_cycle;Max_cycle;Signal;HPM_P1;HPM_P2
2022/01/05 00:00:54;;;;;;;;;0.25;0.00;;;;;;;;5151196;27;45326;-85
2022/01/05 00:03:20;;;;;;;;;0.00;0.00;;;;;;;;5150590;27;45474;-86
2022/01/05 00:05:45;;;;;;;;;3.00;2.00;;;;;;;;5151036;27;45168;-85
2022/01/05 00:08:12;;;;;;;;;1.00;0.75;;;;;;;;5133136;27;45128;-85
2022/01/05 00:10:37;;;;;;;;;1.00;1.00;;;;;;;;5132061;27;45083;-84
2022/01/05 00:13:03;;;;;;;;;1.00;1.00;;;;;;;;5151369;27;45853;-84
2022/01/05 00:15:28;;;;;;;;;3.67;2.00;;;;;;;;5132386;27;45486;-85
2022/01/05 00:17:53;;;;;;;;;1.33;1.00;;;;;;;;5150473;27;44990;-85
2022/01/05 00:20:18;;;;;;;;;1.00;1.00;;;;;;;;5151049;27;45159;-85
2022/01/05 00:22:43;;;;;;;;;1.00;1.00;;;;;;;;5131607;27;47383;-85
2022/01/05 00:25:09;;;;;;;;;1.67;1.33;;;;;;;;5131197;27;45090;-84
2022/01/05 00:27:34;;;;;;;;;1.00;1.00;;;;;;;;5132465;27;44972;-84
2022/01/05 00:29:59;;;;;;;;;1.00;1.00;;;;;;;;5131484;27;45157;-84
2022/01/05 00:32:24;;;;;;;;;2.00;2.00;;;;;;;;5131873;27;47546;-85
2022/01/05 00:34:50;;;;;;;;;3.67;2.67;;;;;;;;5131174;27;45405;-85
2022/01/05 00:37:15;;;;;;;;;2.00;2.00;;;;;;;;5131834;27;45226;-84
2022/01/05 00:39:40;;;;;;;;;1.00;1.00;;;;;;;;5150017;27;45095;-84
2022/01/05 00:42:06;;;;;;;;;1.67;1.67;;;;;;;;5131446;27;47073;-86
2022/01/05 00:44:31;;;;;;;;;2.00;1.75;;;;;;;;5132377;27;45156;-84
2022/01/05 00:46:57;;;;;;;;;1.00;1.00;;;;;;;;5149752;27;45112;-85
2022/01/05 00:49:22;;;;;;;;;2.00;1.00;;;;;;;;5150402;27;45150;-84
2022/01/05 00:51:47;;;;;;;;;0.33;0.33;;;;;;;;5150926;27;45241;-84
2022/01/05 00:54:12;;;;;;;;;2.00;1.00;;;;;;;;5131434;27;45154;-84
2022/01/05 00:56:38;;;;;;;;;2.00;1.67;;;;;;;;5130846;27;45204;-85
2022/01/05 00:59:03;;;;;;;;;1.00;1.00;;;;;;;;5131284;27;45172;-85
2022/01/05 01:01:28;;;;;;;;;1.67;1.00;;;;;;;;5132047;27;47440;-85
2022/01/05 01:03:54;;;;;;;;;1.00;1.00;;;;;;;;5131647;27;45147;-85
2022/01/05 01:06:19;;;;;;;;;1.50;1.00;;;;;;;;5131368;27;45340;-84
2022/01/05 01:08:44;;;;;;;;;2.67;2.67;;;;;;;;5131598;27;45118;-84
2022/01/05 01:11:09;;;;;;;;;1.00;1.00;;;;;;;;5131175;27;47046;-84
2022/01/05 01:13:35;;;;;;;;;1.75;1.50;;;;;;;;5150486;27;45107;-84
2022/01/05 01:16:00;;;;;;;;;3.33;3.33;;;;;;;;5131279;27;45113;-84
2022/01/05 01:18:25;;;;;;;;;2.00;2.00;;;;;;;;5130654;27;45247;-84
2022/01/05 01:20:51;;;;;;;;;1.33;1.33;;;;;;;;5129596;27;47401;-84
2022/01/05 01:23:19;;;;;;;;;1.25;1.25;;;;;;;;5131025;27;45197;-85
2022/01/05 01:25:44;;;;;;;;;2.75;1.25;;;;;;;;5130264;27;45057;-84
2022/01/05 01:28:10;;;;;;;;;2.00;1.00;;;;;;;;5149148;27;45427;-84
2022/01/05 01:30:35;;;;;;;;;2.00;2.00;;;;;;;;5131026;27;47592;-85
2022/01/05 01:33:00;;;;;;;;;3.00;2.00;;;;;;;;5130652;27;45200;-84
2022/01/05 01:35:26;;;;;;;;;1.33;1.00;;;;;;;;5149900;27;45143;-85
2022/01/05 01:37:51;;;;;;;;;1.50;1.50;;;;;;;;5131252;27;45030;-84
2022/01/05 01:40:17;;;;;;;;;1.00;1.00;;;;;;;;5130280;27;47542;-84
2022/01/05 01:42:42;;;;;;;;;1.00;1.00;;;;;;;;5131045;27;45141;-83
2022/01/05 01:45:07;;;;;;;;;2.33;2.00;;;;;;;;5131066;27;45219;-84
2022/01/05 01:47:32;;;;;;;;;1.00;1.00;;;;;;;;5149238;27;45212;-84
2022/01/05 01:49:58;;;;;;;;;2.00;2.00;;;;;;;;5149490;27;45871;-84
2022/01/05 01:52:23;;;;;;;;;2.50;1.00;;;;;;;;5131306;27;45330;-84
2022/01/05 01:54:48;;;;;;;;;1.33;1.33;;;;;;;;5149493;27;45166;-84
2022/01/05 01:57:14;;;;;;;;;1.00;1.00;;;;;;;;5131334;27;45105;-84
2022/01/05 01:59:39;;;;;;;;;3.00;2.00;;;;;;;;5130339;27;47467;-85
2022/01/05 02:02:05;;;;;;;;;1.33;1.00;;;;;;;;5130327;27;45213;-84
2022/01/05 02:04:31;;;;;;;;;2.00;2.00;;;;;;;;5131541;27;45095;-85
2022/01/05 02:06:56;;;;;;;;;2.00;2.00;;;;;;;;5130487;27;45341;-84
2022/01/05 02:09:21;;;;;;;;;1.33;0.33;;;;;;;;5130933;27;47667;-84
2022/01/05 02:11:47;;;;;;;;;2.67;2.00;;;;;;;;5130999;27;45072;-84
2022/01/05 02:14:12;;;;;;;;;2.50;1.75;;;;;;;;5134292;27;45062;-84
2022/01/05 02:16:44;;;;;;;;;1.00;1.00;;;;;;;;5133911;27;45121;-84
2022/01/05 02:19:09;;;;;;;;;2.00;2.00;;;;;;;;5133414;27;47449;-84
2022/01/05 02:21:36;;;;;;;;;1.75;1.00;;;;;;;;5134062;27;45184;-84
2022/01/05 02:24:03;;;;;;;;;1.00;1.00;;;;;;;;5132406;27;45366;-84
2022/01/05 02:26:29;;;;;;;;;1.00;1.00;;;;;;;;5152756;27;44987;-84
2022/01/05 02:28:54;;;;;;;;;2.75;2.00;;;;;;;;5133456;27;46732;-84
2022/01/05 02:31:20;;;;;;;;;0.75;0.75;;;;;;;;5133516;27;45142;-83
2022/01/05 02:33:45;;;;;;;;;2.00;2.00;;;;;;;;5133934;27;45033;-84
2022/01/05 02:36:14;;;;;;;;;1.00;1.00;;;;;;;;5133951;27;45017;-84
2022/01/05 02:38:39;;;;;;;;;2.00;2.00;;;;;;;;5132928;27;47550;-84
2022/01/05 02:41:06;;;;;;;;;1.00;1.00;;;;;;;;5133634;27;45265;-84
2022/01/05 02:43:32;;;;;;;;;5.00;2.50;;;;;;;;5134129;27;45019;-84
2022/01/05 02:45:59;;;;;;;;;2.00;1.00;;;;;;;;5152610;27;45172;-83
2022/01/05 02:48:24;;;;;;;;;1.00;1.00;;;;;;;;5133552;27;47672;-84
2022/01/05 02:50:49;;;;;;;;;1.67;1.67;;;;;;;;5151803;27;45085;-85
2022/01/05 02:53:15;;;;;;;;;1.00;1.00;;;;;;;;5133262;27;45074;-84
2022/01/05 02:55:40;;;;;;;;;2.00;1.33;;;;;;;;5133394;27;45456;-84
2022/01/05 02:58:05;;;;;;;;;1.67;1.67;;;;;;;;5132999;27;47689;-84
2022/01/05 03:00:30;;;;;;;;;2.00;1.33;;;;;;;;5132940;27;45152;-84
2022/01/05 03:02:56;;;;;;;;;2.00;1.33;;;;;;;;5152177;27;44880;-83
2022/01/05 03:05:21;;;;;;;;;2.00;1.00;;;;;;;;5133550;27;45279;-84
2022/01/05 03:07:46;;;;;;;;;2.00;2.00;;;;;;;;5132224;27;46897;-84
2022/01/05 03:10:13;;;;;;;;;1.00;0.67;;;;;;;;5132439;27;45749;-84
2022/01/05 03:12:39;;;;;;;;;3.00;2.00;;;;;;;;5133904;27;45126;-84
2022/01/05 03:15:05;;;;;;;;;2.00;1.50;;;;;;;;5132666;27;45223;-84
2022/01/05 03:17:30;;;;;;;;;1.00;1.00;;;;;;;;5133709;27;47385;-84
2022/01/05 03:19:55;;;;;;;;;1.67;1.00;;;;;;;;5132961;27;45495;-84
2022/01/05 03:22:21;;;;;;;;;2.00;1.00;;;;;;;;5151703;27;44990;-84
2022/01/05 03:24:46;;;;;;;;;1.67;1.00;;;;;;;;5132634;27;45052;-84
2022/01/05 03:27:11;;;;;;;;;2.67;2.00;;;;;;;;5152046;27;45163;-84
2022/01/05 03:29:36;;;;;;;;;2.00;1.33;;;;;;;;5132730;27;45158;-85
2022/01/05 03:32:02;;;;;;;;;1.00;1.00;;;;;;;;5133179;27;45160;-85
2022/01/05 03:34:27;;;;;;;;;4.00;1.75;;;;;;;;5152062;27;45258;-85
2022/01/05 03:36:54;;;;;;;;;2.00;2.00;;;;;;;;5133030;27;47049;-84
2022/01/05 03:39:20;;;;;;;;;3.50;2.25;;;;;;;;5132518;27;45410;-84
2022/01/05 03:41:45;;;;;;;;;1.75;1.50;;;;;;;;5132882;27;45048;-84
2022/01/05 03:44:11;;;;;;;;;2.00;2.00;;;;;;;;5132959;27;45251;-84
2022/01/05 03:46:36;;;;;;;;;2.00;1.50;;;;;;;;5112200;27;47356;-84
2022/01/05 03:49:02;;;;;;;;;1.75;1.00;;;;;;;;5117292;27;45202;-84
2022/01/05 03:51:27;;;;;;;;;2.25;2.00;;;;;;;;5132820;27;45177;-84
2022/01/05 03:53:52;;;;;;;;;1.67;1.33;;;;;;;;5132056;27;45297;-84
2022/01/05 03:56:18;;;;;;;;;2.00;1.00;;;;;;;;5132300;27;47619;-84
2022/01/05 03:58:44;;;;;;;;;1.25;1.00;;;;;;;;5131813;27;45286;-84
2022/01/05 04:01:09;;;;;;;;;4.00;3.50;;;;;;;;5151339;27;45132;-85
2022/01/05 04:03:34;;;;;;;;;3.50;3.00;;;;;;;;5132835;27;45108;-85
2022/01/05 04:06:00;;;;;;;;;2.00;1.00;;;;;;;;5132279;27;47184;-85
2022/01/05 04:08:25;;;;;;;;;2.00;2.00;;;;;;;;5132300;27;45409;-85
2022/01/05 04:10:50;;;;;;;;;3.00;2.00;;;;;;;;5132148;27;45318;-85
2022/01/05 04:13:16;;;;;;;;;3.67;2.00;;;;;;;;5151415;27;45109;-85
2022/01/05 04:15:41;;;;;;;;;5.00;2.00;;;;;;;;5132332;27;47672;-84
2022/01/05 04:18:06;;;;;;;;;2.00;1.67;;;;;;;;5132538;27;45168;-85
2022/01/05 04:20:35;;;;;;;;;1.00;1.00;;;;;;;;5151497;27;46375;-85
2022/01/05 04:23:00;;;;;;;;;2.75;1.00;;;;;;;;5131852;27;45547;-84
2022/01/05 04:25:25;;;;;;;;;1.00;0.25;;;;;;;;5132581;27;47162;-84
2022/01/05 04:27:51;;;;;;;;;1.25;1.25;;;;;;;;5131871;27;45151;-84
2022/01/05 04:30:16;;;;;;;;;2.00;2.00;;;;;;;;5132018;27;45271;-84
2022/01/05 04:32:41;;;;;;;;;1.33;1.00;;;;;;;;5132358;27;45033;-84
2022/01/05 04:35:07;;;;;;;;;1.00;1.00;;;;;;;;5149885;27;45992;-84
2022/01/05 04:37:32;;;;;;;;;1.50;1.00;;;;;;;;5131692;27;45283;-84
2022/01/05 04:40:01;;;;;;;;;2.00;2.00;;;;;;;;5150465;27;45133;-84
2022/01/05 04:42:26;;;;;;;;;1.25;1.00;;;;;;;;5131640;27;45130;-84
2022/01/05 04:44:52;;;;;;;;;1.25;1.00;;;;;;;;5131139;27;46867;-84
2022/01/05 04:47:17;;;;;;;;;1.25;1.25;;;;;;;;5131973;27;45244;-83
2022/01/05 04:49:45;;;;;;;;;2.67;1.00;;;;;;;;5131569;27;45143;-83
2022/01/05 04:52:10;;;;;;;;;2.00;1.00;;;;;;;;5131314;27;45493;-84
2022/01/05 04:54:35;;;;;;;;;1.00;1.00;;;;;;;;5131506;27;47248;-84
2022/01/05 04:57:01;;;;;;;;;4.33;1.67;;;;;;;;5130831;27;45142;-84
2022/01/05 04:59:26;;;;;;;;;3.00;1.00;;;;;;;;5131932;27;45050;-84
2022/01/05 05:01:51;;;;;;;;;2.00;1.67;;;;;;;;5131723;27;45474;-84
2022/01/05 05:04:16;;;;;;;;;1.00;1.00;;;;;;;;5149919;27;45337;-84
2022/01/05 05:06:41;;;;;;;;;2.00;2.00;;;;;;;;5150455;27;44995;-85
2022/01/05 05:09:07;;;;;;;;;3.00;2.67;;;;;;;;5131741;27;45179;-85
2022/01/05 05:11:32;;;;;;;;;1.00;1.00;;;;;;;;5132104;27;45269;-85
2022/01/05 05:13:57;;;;;;;;;1.00;1.00;;;;;;;;5150430;27;45765;-84
2022/01/05 05:16:22;;;;;;;;;2.00;2.00;;;;;;;;5150281;27;45189;-86
2022/01/05 05:18:48;;;;;;;;;3.67;3.00;;;;;;;;5131477;27;45196;-84
2022/01/05 05:21:13;;;;;;;;;2.00;2.00;;;;;;;;5147690;27;45212;-85
2022/01/05 05:23:38;;;;;;;;;3.00;3.00;;;;;;;;5130537;27;46965;-84
2022/01/05 05:26:04;;;;;;;;;1.00;1.00;;;;;;;;5147844;27;45168;-85
2022/01/05 05:28:29;;;;;;;;;1.00;1.00;;;;;;;;5137112;27;45197;-84
2022/01/05 05:30:54;;;;;;;;;3.00;1.33;;;;;;;;5133793;27;45158;-85
2022/01/05 05:33:19;;;;;;;;;2.00;1.33;;;;;;;;5150050;27;46271;-85
2022/01/05 05:35:45;;;;;;;;;1.67;1.67;;;;;;;;5130435;27;45856;-84
2022/01/05 05:38:12;;;;;;;;;1.75;0.25;;;;;;;;5131057;27;45571;-85
2022/01/05 05:40:37;;;;;;;;;1.25;1.25;;;;;;;;5131339;27;45243;-84
2022/01/05 05:43:02;;;;;;;;;5.00;2.00;;;;;;;;5130279;27;47080;-84
2022/01/05 05:45:27;;;;;;;;;1.67;1.00;;;;;;;;5130967;27;45473;-85
2022/01/05 05:47:52;;;;;;;;;3.00;2.00;;;;;;;;5133121;27;45152;-84
2022/01/05 05:50:18;;;;;;;;;1.67;1.67;;;;;;;;5152918;27;45265;-84
2022/01/05 05:52:43;;;;;;;;;2.75;1.50;;;;;;;;5134012;27;47208;-84
2022/01/05 05:55:08;;;;;;;;;1.00;1.00;;;;;;;;5152123;27;45502;-84
2022/01/05 05:57:34;;;;;;;;;1.00;1.00;;;;;;;;5152663;27;45051;-84
2022/01/05 05:59:59;;;;;;;;;0.67;0.67;;;;;;;;5133907;27;45332;-84
2022/01/05 06:02:24;;;;;;;;;2.67;1.33;;;;;;;;5134049;27;47402;-84
2022/01/05 06:04:49;;;;;;;;;1.50;0.75;;;;;;;;5135404;27;45362;-83
2022/01/05 06:07:15;;;;;;;;;1.00;1.00;;;;;;;;5153009;27;45075;-84
2022/01/05 06:09:40;;;;;;;;;2.00;1.33;;;;;;;;5133537;27;45437;-83
2022/01/05 06:12:05;;;;;;;;;1.67;1.00;;;;;;;;5133709;27;47118;-84
2022/01/05 06:14:31;;;;;;;;;2.75;2.25;;;;;;;;5153589;27;45332;-84
2022/01/05 06:16:56;;;;;;;;;0.00;0.00;;;;;;;;5131674;27;45390;-84
2022/01/05 06:19:21;;;;;;;;;2.00;1.33;;;;;;;;5152914;27;45158;-83
2022/01/05 06:21:47;;;;;;;;;1.00;1.00;;;;;;;;5154877;27;46018;-84
2022/01/05 06:24:12;;;;;;;;;2.00;2.00;;;;;;;;5132041;27;45115;-83
2022/01/05 06:26:37;;;;;;;;;1.67;1.00;;;;;;;;5133774;27;45167;-85
2022/01/05 06:29:03;;;;;;;;;1.33;1.00;;;;;;;;5133165;27;45233;-84
2022/01/05 06:31:28;;;;;;;;;3.00;2.00;;;;;;;;5152518;27;46045;-84
2022/01/05 06:33:53;;;;;;;;;1.00;1.00;;;;;;;;5118509;27;45508;-84
2022/01/05 06:36:18;;;;;;;;;5.00;3.33;;;;;;;;5134638;27;45466;-84
2022/01/05 06:38:44;;;;;;;;;1.67;1.00;;;;;;;;5121102;27;45081;-84
2022/01/05 06:41:09;;;;;;;;;1.00;1.00;;;;;;;;5140249;27;46926;-84
2022/01/05 06:43:34;;;;;;;;;3.67;3.67;;;;;;;;5125270;27;45601;-84
2022/01/05 06:46:00;;;;;;;;;6.00;1.00;;;;;;;;5141298;27;45542;-84
2022/01/05 06:48:25;;;;;;;;;1.00;1.00;;;;;;;;5114577;27;45656;-84
2022/01/05 06:50:50;;;;;;;;;3.00;3.00;;;;;;;;5113322;27;47266;-84
2022/01/05 06:53:15;;;;;;;;;2.00;1.33;;;;;;;;5133723;27;45471;-84
2022/01/05 06:55:41;;;;;;;;;1.33;1.33;;;;;;;;5119899;27;45522;-84
2022/01/05 06:58:06;;;;;;;;;1.00;1.00;;;;;;;;5153319;27;45172;-84
2022/01/05 07:00:31;;;;;;;;;2.33;2.00;;;;;;;;5141462;27;46918;-84
2022/01/05 07:02:57;;;;;;;;;2.00;2.00;;;;;;;;5128969;27;45270;-84
2022/01/05 07:05:22;;;;;;;;;2.00;2.00;;;;;;;;5127102;27;45418;-84
2022/01/05 07:07:47;;;;;;;;;3.33;2.67;;;;;;;;5132823;27;45115;-84
2022/01/05 07:10:12;;;;;;;;;4.33;3.33;;;;;;;;5130109;27;47754;-84
2022/01/05 07:12:38;;;;;;;;;2.00;2.00;;;;;;;;5137037;27;45155;-84
2022/01/05 07:15:04;;;;;;;;;1.00;1.00;;;;;;;;5148653;27;45192;-84
2022/01/05 07:17:29;;;;;;;;;3.25;1.00;;;;;;;;5120657;27;45445;-84
2022/01/05 07:19:55;;;;;;;;;2.33;1.33;;;;;;;;5117142;27;47042;-84
2022/01/05 07:22:20;;;;;;;;;1.00;0.00;;;;;;;;5126739;27;45340;-84
2022/01/05 07:24:45;;;;;;;;;2.67;2.00;;;;;;;;5129763;27;45477;-84
2022/01/05 07:27:11;;;;;;;;;1.00;1.00;;;;;;;;5134310;27;45465;-84
2022/01/05 07:29:36;;;;;;;;;3.00;2.33;;;;;;;;5123458;27;45543;-84
2022/01/05 07:32:01;;;;;;;;;3.33;3.33;;;;;;;;5125304;27;45558;-85
2022/01/05 07:34:27;;;;;;;;;1.00;1.00;;;;;;;;5127467;27;45318;-85
2022/01/05 07:36:52;;;;;;;;;1.00;1.00;;;;;;;;5126783;27;45039;-84
2022/01/05 07:39:17;;;;;;;;;4.33;2.00;;;;;;;;5127869;27;47499;-84
2022/01/05 07:41:42;;;;;;;;;2.00;1.33;;;;;;;;5131848;27;45668;-84
2022/01/05 07:44:08;;;;;;;;;1.33;1.00;;;;;;;;5149367;27;45406;-85
2022/01/05 07:46:33;;;;;;;;;1.50;1.50;;;;;;;;5128006;27;45369;-83
2022/01/05 07:48:58;;;;;;;;;1.00;1.00;;;;;;;;5115059;27;47443;-84
2022/01/05 07:51:24;;;;;;;;;1.00;1.00;;;;;;;;5119392;27;45733;-87
2022/01/05 07:53:49;;;;;;;;;1.00;1.00;;;;;;;;5119738;27;45290;-83
2022/01/05 07:56:15;;;;;;;;;1.00;1.00;;;;;;;;5119204;27;45285;-83
2022/01/05 07:58:40;;;;;;;;;2.67;1.67;;;;;;;;5128729;27;47152;-84
2022/01/05 08:01:05;;;;;;;;;4.33;3.00;;;;;;;;5118829;27;45127;-85
2022/01/05 08:03:33;;;;;;;;;1.75;1.75;;;;;;;;5130680;27;44996;-85
2022/01/05 08:06:02;;;;;;;;;3.00;2.25;;;;;;;;5120151;27;45205;-85
2022/01/05 08:08:27;;;;;;;;;4.00;3.50;;;;;;;;5132141;27;47191;-85
2022/01/05 08:10:52;;;;;;;;;3.33;2.00;;;;;;;;5149741;27;45223;-85
2022/01/05 08:13:18;;;;;;;;;5.00;3.33;;;;;;;;5120806;27;45547;-83
2022/01/05 08:15:43;;;;;;;;;2.00;1.33;;;;;;;;5114778;27;45543;-84
2022/01/05 08:18:08;;;;;;;;;6.00;4.00;;;;;;;;5134315;27;45481;-84
2022/01/05 08:20:33;;;;;;;;;2.00;2.00;;;;;;;;5114123;27;45849;-84
2022/01/05 08:22:58;;;;;;;;;2.00;2.00;;;;;;;;5125729;27;45615;-83
2022/01/05 08:25:30;;;;;;;;;2.00;2.00;;;;;;;;5095462;27;45610;-84
2022/01/05 08:28:02;;;;;;;;;7.00;6.25;;;;;;;;5091603;27;46826;-84
2022/01/05 08:30:34;;;;;;;;;2.00;2.00;;;;;;;;5103778;27;45874;-83
2022/01/05 08:33:01;;;;;;;;;1.00;1.00;;;;;;;;5102960;27;45639;-83
2022/01/05 08:35:26;;;;;;;;;3.25;2.75;;;;;;;;5107451;27;45589;-85
2022/01/05 08:37:52;;;;;;;;;4.50;2.00;;;;;;;;5114126;27;48115;-84
2022/01/05 08:40:18;;;;;;;;;2.00;1.00;;;;;;;;5113431;27;45811;-84
2022/01/05 08:42:44;;;;;;;;;1.50;1.50;;;;;;;;5104469;27;45707;-84
2022/01/05 08:45:10;;;;;;;;;0.25;0.00;;;;;;;;5124790;27;45284;-85
2022/01/05 08:47:35;;;;;;;;;2.25;2.25;;;;;;;;5126888;27;47827;-84
2022/01/05 08:50:00;;;;;;;;;5.00;4.33;;;;;;;;5120988;27;45448;-84
2022/01/05 08:52:25;;;;;;;;;4.33;2.33;;;;;;;;5122206;27;45294;-84
2022/01/05 08:54:51;;;;;;;;;2.00;2.00;;;;;;;;5118633;27;45245;-84
2022/01/05 08:57:17;;;;;;;;;2.00;2.00;;;;;;;;5113531;27;46961;-85
2022/01/05 08:59:43;;;;;;;;;2.00;2.00;;;;;;;;5109248;27;45761;-85
2022/01/05 09:02:08;;;;;;;;;2.00;2.00;;;;;;;;5104010;27;45353;-84
2022/01/05 09:04:33;;;;;;;;;5.25;2.75;;;;;;;;5115003;27;45652;-84
2022/01/05 09:07:00;;;;;;;;;5.00;4.33;;;;;;;;5110411;27;48264;-85
2022/01/05 09:09:25;;;;;;;;;3.00;2.25;;;;;;;;5104420;27;45618;-84
2022/01/05 09:11:50;;;;;;;;;3.33;3.33;;;;;;;;5104173;27;44893;-84
2022/01/05 09:14:15;;;;;;;;;2.33;2.00;;;;;;;;5112633;27;45315;-85
2022/01/05 09:16:40;;;;;;;;;3.00;3.00;;;;;;;;5122835;27;47407;-83
2022/01/05 09:19:06;;;;;;;;;1.00;1.00;;;;;;;;5145667;27;45298;-85
2022/01/05 09:21:34;;;;;;;;;2.75;2.25;;;;;;;;5138793;27;45419;-84
2022/01/05 09:24:00;;;;;;;;;3.75;2.50;;;;;;;;5103490;27;45660;-83
2022/01/05 09:26:25;;;;;;;;;2.25;2.25;;;;;;;;5118158;27;47088;-84
2022/01/05 09:28:50;;;;;;;;;2.00;2.00;;;;;;;;5136893;27;45754;-85
2022/01/05 09:31:15;;;;;;;;;2.00;1.33;;;;;;;;5143494;27;45185;-84
2022/01/05 09:33:41;;;;;;;;;3.00;1.00;;;;;;;;5116695;27;45026;-85
2022/01/05 09:36:14;;;;;;;;;2.00;2.00;;;;;;;;5140046;27;45880;-84
2022/01/05 09:44:02;;;;;;;;;2.25;1.50;;;;;;;;5142036;27;45270;-84
2022/01/05 09:46:38;;;;;;;;;3.00;1.75;;;;;;;;5123685;27;47656;-84
2022/01/05 09:49:10;;;;;;;;;2.00;2.00;;;;;;;;5120277;27;45473;-85
2022/01/05 09:51:37;;;;;;;;;1.25;1.25;;;;;;;;5141614;27;45008;-84
2022/01/05 09:54:02;;;;;;;;;1.00;1.00;;;;;;;;5142585;27;45184;-85
2022/01/05 09:56:29;;;;;;;;;5.00;4.33;;;;;;;;5108657;27;47487;-85
2022/01/05 09:58:55;;;;;;;;;1.75;1.75;;;;;;;;5138473;27;45684;-85
2022/01/05 10:01:21;;;;;;;;;5.00;3.00;;;;;;;;5113146;27;45503;-83
2022/01/05 10:03:46;;;;;;;;;5.00;4.50;;;;;;;;5126310;27;45448;-84
2022/01/05 10:06:12;;;;;;;;;2.00;1.33;;;;;;;;5101761;27;46073;-84
2022/01/05 10:08:37;;;;;;;;;2.50;1.75;;;;;;;;5128720;27;45463;-85
2022/01/05 10:11:02;;;;;;;;;3.00;3.00;;;;;;;;5125792;27;45420;-93
2022/01/05 10:13:27;;;;;;;;;2.00;1.25;;;;;;;;5114318;27;45455;-86
2022/01/05 10:15:54;;;;;;;;;3.00;2.33;;;;;;;;5135301;27;45482;-84
2022/01/05 10:18:22;;;;;;;;;3.25;3.25;;;;;;;;5113622;27;45556;-84
2022/01/05 10:20:54;;;;;;;;;9.25;6.75;;;;;;;;5132818;27;45707;-84
2022/01/05 10:23:32;;;;;;;;;5.00;3.00;;;;;;;;5114265;27;45863;-84
2022/01/05 10:26:16;;;;;;;;;3.00;2.00;;;;;;;;5133683;27;45545;-84
2022/01/05 10:28:42;;;;;;;;;1.00;1.00;;;;;;;;5133058;27;45883;-85
2022/01/05 10:31:12;;;;;;;;;5.75;3.00;;;;;;;;5106259;27;45658;-84
2022/01/05 10:33:38;;;;;;;;;4.00;4.00;;;;;;;;5130907;27;45044;-85
2022/01/05 10:36:04;;;;;;;;;3.00;3.00;;;;;;;;5112147;27;47160;-84
2022/01/05 10:38:29;;;;;;;;;6.75;5.00;;;;;;;;5111664;27;45370;-84
2022/01/05 10:40:54;;;;;;;;;2.25;2.00;;;;;;;;5127536;27;45602;-84
2022/01/05 10:43:19;;;;;;;;;5.33;5.00;;;;;;;;5106193;27;45590;-84
2022/01/05 10:45:46;;;;;;;;;5.00;3.00;;;;;;;;5101856;27;46911;-83
2022/01/05 10:48:14;;;;;;;;;5.00;3.00;;;;;;;;5093488;27;45504;-83
2022/01/05 10:50:39;;;;;;;;;3.50;3.50;;;;;;;;5082650;27;45643;-84
2022/01/05 10:53:06;;;;;;;;;2.00;2.00;;;;;;;;5078477;27;46132;-84
2022/01/05 10:55:32;;;;;;;;;5.00;5.00;;;;;;;;5085414;27;47120;-83
2022/01/05 10:58:05;;;;;;;;;2.00;2.00;;;;;;;;5075501;27;45809;-84
2022/01/05 11:00:36;;;;;;;;;2.25;1.50;;;;;;;;5098210;27;45474;-84
2022/01/05 11:03:02;;;;;;;;;2.00;2.00;;;;;;;;5087900;27;45854;-81
2022/01/05 11:05:27;;;;;;;;;5.75;4.50;;;;;;;;5082277;27;45771;-84
2022/01/05 11:08:06;;;;;;;;;4.00;3.25;;;;;;;;5078948;27;45759;-85
2022/01/05 11:10:31;;;;;;;;;2.75;2.00;;;;;;;;5090626;27;45799;-83
2022/01/05 11:12:56;;;;;;;;;3.00;2.67;;;;;;;;5081100;27;45527;-83
2022/01/05 11:15:24;;;;;;;;;5.00;3.00;;;;;;;;5089522;27;47563;-84
2022/01/05 11:18:11;;;;;;;;;5.75;2.25;;;;;;;;5085507;27;45713;-86
2022/01/05 11:20:50;;;;;;;;;4.75;3.00;;;;;;;;5096591;27;45313;-83
2022/01/05 11:23:16;;;;;;;;;2.50;1.50;;;;;;;;5091799;27;45873;-87
2022/01/05 11:25:42;;;;;;;;;4.00;2.25;;;;;;;;5075004;27;48362;-85
2022/01/05 11:28:08;;;;;;;;;2.50;2.50;;;;;;;;5071479;28;45811;-87
2022/01/05 11:30:34;;;;;;;;;3.25;2.50;;;;;;;;5092026;27;45583;-87
2022/01/05 11:32:59;;;;;;;;;2.75;2.50;;;;;;;;5093012;27;45577;-84
2022/01/05 11:35:25;;;;;;;;;3.00;3.00;;;;;;;;5082779;27;47186;-85
2022/01/05 11:37:50;;;;;;;;;5.00;5.00;;;;;;;;5074421;28;45389;-88
2022/01/05 11:40:16;;;;;;;;;5.00;3.67;;;;;;;;5072433;28;45686;-87
2022/01/05 11:42:42;;;;;;;;;5.00;4.25;;;;;;;;5073941;27;45700;-84
2022/01/05 11:45:08;;;;;;;;;2.75;2.25;;;;;;;;5072657;27;47148;-87
2022/01/05 11:47:37;;;;;;;;;4.75;4.75;;;;;;;;5097913;27;45542;-87
2022/01/05 11:50:26;;;;;;;;;2.25;2.00;;;;;;;;5116415;27;45395;-85
2022/01/05 11:53:06;;;;;;;;;3.25;3.00;;;;;;;;5111139;27;45528;-84
2022/01/05 11:55:32;;;;;;;;;4.25;4.25;;;;;;;;5112438;27;47278;-85
2022/01/05 11:58:17;;;;;;;;;4.50;4.25;;;;;;;;5114377;27;45808;-85
2022/01/05 12:00:43;;;;;;;;;6.00;4.00;;;;;;;;5128588;27;45509;-84
2022/01/05 12:03:08;;;;;;;;;3.25;2.75;;;;;;;;5126661;27;45335;-86
2022/01/05 12:05:52;;;;;;;;;2.50;2.00;;;;;;;;5113792;27;48184;-83
2022/01/05 12:08:36;;;;;;;;;2.00;1.00;;;;;;;;5116209;27;45605;-84
2022/01/05 12:11:02;;;;;;;;;5.00;3.75;;;;;;;;5122962;27;45500;-87
2022/01/05 12:13:36;;;;;;;;;2.00;2.00;;;;;;;;5145962;27;45123;-88
2022/01/05 12:16:01;;;;;;;;;6.25;4.00;;;;;;;;5112654;27;47517;-85
2022/01/05 12:18:29;;;;;;;;;4.33;2.67;;;;;;;;5116554;27;45429;-87
2022/01/05 12:20:57;;;;;;;;;2.50;2.00;;;;;;;;5123656;27;45209;-86
2022/01/05 12:23:24;;;;;;;;;2.75;2.00;;;;;;;;5124164;27;45519;-86
2022/01/05 12:26:08;;;;;;;;;1.50;1.00;;;;;;;;5140131;27;45971;-88
2022/01/05 12:28:38;;;;;;;;;3.25;3.00;;;;;;;;5119225;27;45390;-87
2022/01/05 12:31:03;;;;;;;;;2.75;2.00;;;;;;;;5132054;27;45410;-85
2022/01/05 12:33:51;;;;;;;;;4.00;2.00;;;;;;;;5133425;27;45350;-86
2022/01/05 12:36:36;;;;;;;;;2.25;1.50;;;;;;;;5150764;27;45773;-86
2022/01/05 12:39:05;;;;;;;;;2.00;2.00;;;;;;;;5129443;27;45156;-87
2022/01/05 12:41:33;;;;;;;;;2.75;1.75;;;;;;;;5119564;27;45806;-88
2022/01/05 12:44:00;;;;;;;;;2.00;1.75;;;;;;;;5124818;27;45238;-88
2022/01/05 12:46:33;;;;;;;;;3.75;2.00;;;;;;;;5134367;27;47951;-88
2022/01/05 12:48:59;;;;;;;;;2.00;0.75;;;;;;;;5152190;27;46092;-86
2022/01/05 12:51:32;;;;;;;;;2.50;2.00;;;;;;;;5128443;27;45374;-87
2022/01/05 12:54:13;;;;;;;;;5.00;2.00;;;;;;;;5130750;27;45316;-90
2022/01/05 12:57:09;;;;;;;;;2.75;2.00;;;;;;;;5129708;27;47446;-85
2022/01/05 12:59:43;;;;;;;;;2.25;2.00;;;;;;;;5107329;27;45473;-86
2022/01/05 13:02:13;;;;;;;;;3.75;3.00;;;;;;;;5147349;27;45813;-83
2022/01/05 13:04:41;;;;;;;;;2.00;2.00;;;;;;;;5123051;27;45300;-84
2022/01/05 13:07:06;;;;;;;;;2.25;1.75;;;;;;;;5122601;27;47221;-87
2022/01/05 13:09:34;;;;;;;;;3.00;2.33;;;;;;;;5132376;27;45342;-85
2022/01/05 13:12:03;;;;;;;;;2.25;2.00;;;;;;;;5129095;27;45326;-87
2022/01/05 13:14:30;;;;;;;;;3.75;2.75;;;;;;;;5131298;27;45027;-85
2022/01/05 13:16:58;;;;;;;;;2.00;2.00;;;;;;;;5132500;27;46018;-85
2022/01/05 13:19:26;;;;;;;;;3.25;2.00;;;;;;;;5135532;27;46080;-85
2022/01/05 13:21:52;;;;;;;;;6.00;4.00;;;;;;;;5112788;27;45673;-85
2022/01/05 13:24:17;;;;;;;;;3.00;3.00;;;;;;;;5116556;27;45424;-83
2022/01/05 13:27:01;;;;;;;;;2.50;2.50;;;;;;;;5128362;27;46865;-84
2022/01/05 13:29:30;;;;;;;;;3.00;3.00;;;;;;;;5122294;27;45558;-86
2022/01/05 13:31:56;;;;;;;;;1.50;1.50;;;;;;;;5118914;27;45820;-84
2022/01/05 13:34:57;;;;;;;;;5.75;5.00;;;;;;;;5142107;27;45371;-88
2022/01/05 13:37:34;;;;;;;;;2.25;2.25;;;;;;;;5064455;28;47278;-87
2022/01/05 13:40:05;;;;;;;;;4.75;3.75;;;;;;;;5107017;27;45827;-86
2022/01/05 13:42:32;;;;;;;;;3.75;2.25;;;;;;;;5121345;27;45666;-86
2022/01/05 13:44:58;;;;;;;;;4.75;1.25;;;;;;;;5139166;27;45602;-88
2022/01/05 13:47:24;;;;;;;;;4.25;2.00;;;;;;;;5129854;27;48601;-85
2022/01/05 13:50:04;;;;;;;;;4.25;3.25;;;;;;;;5128700;27;45480;-84
2022/01/05 13:52:30;;;;;;;;;2.75;2.75;;;;;;;;5123920;27;45268;-85
2022/01/05 13:54:55;;;;;;;;;4.00;3.00;;;;;;;;5129712;27;45343;-84
2022/01/05 13:57:27;;;;;;;;;4.00;4.00;;;;;;;;5121380;27;47790;-84
2022/01/05 13:59:57;;;;;;;;;5.00;3.25;;;;;;;;5119981;27;45371;-87
2022/01/05 14:02:22;;;;;;;;;3.00;2.00;;;;;;;;5115102;27;45514;-85
2022/01/05 14:04:58;;;;;;;;;4.00;3.50;;;;;;;;5130063;27;44911;-84
2022/01/05 14:07:25;;;;;;;;;3.00;1.75;;;;;;;;5117987;27;47092;-87
2022/01/05 14:10:09;;;;;;;;;2.75;2.50;;;;;;;;5122491;27;46138;-85
2022/01/05 14:12:35;;;;;;;;;3.00;2.50;;;;;;;;5150977;27;45081;-86
2022/01/05 14:15:01;;;;;;;;;2.00;1.50;;;;;;;;5136510;27;45291;-84
2022/01/05 14:17:28;;;;;;;;;2.25;2.00;;;;;;;;5153560;27;45472;-87
2022/01/05 14:20:13;;;;;;;;;3.00;3.00;;;;;;;;5126829;27;45553;-83
2022/01/05 14:22:40;;;;;;;;;3.00;2.25;;;;;;;;5146978;27;45143;-85
2022/01/05 14:25:05;;;;;;;;;3.50;2.25;;;;;;;;5131862;27;45613;-87
2022/01/05 14:27:34;;;;;;;;;2.75;2.75;;;;;;;;5129756;27;47003;-87
2022/01/05 14:30:00;;;;;;;;;3.25;3.00;;;;;;;;5147674;27;45181;-84
2022/01/05 14:32:32;;;;;;;;;2.00;2.00;;;;;;;;5124394;27;45578;-84
2022/01/05 14:34:59;;;;;;;;;5.00;3.00;;;;;;;;5111760;27;45808;-85
2022/01/05 14:37:25;;;;;;;;;2.50;2.25;;;;;;;;5146175;27;46144;-87
2022/01/05 14:39:51;;;;;;;;;1.33;1.33;;;;;;;;5129777;27;45176;-87
2022/01/05 14:42:18;;;;;;;;;4.00;3.00;;;;;;;;5122649;27;45450;-85
2022/01/05 14:44:48;;;;;;;;;3.50;2.75;;;;;;;;5119609;27;45533;-84
2022/01/05 14:47:20;;;;;;;;;3.50;2.50;;;;;;;;5128421;27;47310;-85